createdAt,value
2023-01-11T00:00:55.859Z,10.50
2023-01-11T00:03:22.793Z,10.50
2023-01-11T00:05:49.898Z,10.60
2023-01-11T00:08:16.872Z,10.50
2023-01-11T00:10:43.799Z,10.50
2023-01-11T00:13:10.715Z,10.50
2023-01-11T00:15:38.556Z,10.50
2023-01-11T00:18:05.637Z,10.60
2023-01-11T00:20:32.962Z,10.60
2023-01-11T00:22:59.896Z,10.60
2023-01-11T00:25:27.166Z,10.60
2023-01-11T00:27:54.609Z,10.60
2023-01-11T00:30:21.847Z,10.60
2023-01-11T00:32:48.792Z,10.70
2023-01-11T00:35:16.055Z,10.70
2023-01-11T00:37:42.926Z,10.70
2023-01-11T00:40:10.359Z,10.70
2023-01-11T00:42:55.776Z,10.70
2023-01-11T00:45:41.459Z,10.70
2023-01-11T00:48:10.710Z,10.70
2023-01-11T00:50:56.762Z,10.70
2023-01-11T00:53:56.065Z,10.70
2023-01-11T00:56:31.556Z,10.70
2023-01-11T00:59:03.009Z,10.70
2023-01-11T01:01:37.250Z,10.70
2023-01-11T01:04:11.616Z,10.70
2023-01-11T01:06:38.603Z,10.70
2023-01-11T01:09:05.586Z,10.70
2023-01-11T01:11:32.488Z,10.60
2023-01-11T01:14:18.072Z,10.60
2023-01-11T01:16:47.448Z,10.60
2023-01-11T01:19:14.660Z,10.60
2023-01-11T01:21:41.824Z,10.60
2023-01-11T01:24:09.064Z,10.60
2023-01-11T01:26:36.062Z,10.60
2023-01-11T01:29:03.214Z,10.60
2023-01-11T01:31:30.165Z,10.70
2023-01-11T01:33:57.804Z,10.70
2023-01-11T01:36:24.947Z,10.70
2023-01-11T01:38:51.881Z,10.70
2023-01-11T01:41:19.416Z,10.80
2023-01-11T01:43:51.484Z,10.80
2023-01-11T01:46:21.067Z,10.80
2023-01-11T01:48:55.117Z,10.90
2023-01-11T01:51:27.634Z,10.90
2023-01-11T01:53:59.054Z,10.90
2023-01-11T01:56:31.588Z,10.90
2023-01-11T01:59:04.469Z,11.00
2023-01-11T02:01:49.867Z,11.00
2023-01-11T02:04:40.152Z,11.00
2023-01-11T02:07:17.701Z,11.10
2023-01-11T02:09:53.241Z,11.10
2023-01-11T02:12:20.261Z,11.20
2023-01-11T02:14:49.385Z,11.20
2023-01-11T02:17:16.416Z,11.20
2023-01-11T02:20:07.764Z,11.20
2023-01-11T02:22:43.533Z,11.30
2023-01-11T02:25:38.313Z,11.30
2023-01-11T02:28:19.477Z,11.30
2023-01-11T02:31:14.791Z,11.30
2023-01-11T02:33:53.686Z,11.40
2023-01-11T02:36:38.748Z,11.40
2023-01-11T02:39:15.647Z,11.40
2023-01-11T02:42:20.118Z,11.40
2023-01-11T02:45:02.058Z,11.50
2023-01-11T02:47:37.784Z,11.50
2023-01-11T02:50:18.219Z,11.50
2023-01-11T02:52:45.142Z,11.50
2023-01-11T02:55:15.373Z,11.50
2023-01-11T02:57:44.698Z,11.50
2023-01-11T03:00:13.297Z,11.50
2023-01-11T03:02:40.165Z,11.60
2023-01-11T03:05:13.179Z,11.60
2023-01-11T03:08:01.352Z,11.60
2023-01-11T03:10:54.425Z,11.60
2023-01-11T03:13:21.287Z,11.60
2023-01-11T03:16:16.064Z,11.60
2023-01-11T03:19:09.255Z,11.70
2023-01-11T03:21:54.844Z,11.60
2023-01-11T03:25:00.256Z,11.60
2023-01-11T03:27:38.962Z,11.70
2023-01-11T03:30:25.282Z,11.70
2023-01-11T03:33:05.419Z,11.70
2023-01-11T03:35:59.103Z,11.70
2023-01-11T03:38:55.982Z,11.70
2023-01-11T03:41:27.724Z,11.70
2023-01-11T03:43:58.082Z,11.70
2023-01-11T03:46:31.624Z,11.70
2023-01-11T03:49:00.511Z,11.70
2023-01-11T03:51:30.837Z,11.70
2023-01-11T03:54:04.174Z,11.70
2023-01-11T03:56:43.403Z,11.70
2023-01-11T03:59:10.605Z,11.70
2023-01-11T04:01:38.208Z,11.70
2023-01-11T04:04:05.175Z,11.70
2023-01-11T04:06:36.344Z,11.70
2023-01-11T04:09:04.391Z,11.70
2023-01-11T04:11:31.333Z,11.60
2023-01-11T04:13:58.221Z,11.70
2023-01-11T04:16:25.318Z,11.70
2023-01-11T04:18:52.222Z,11.60
2023-01-11T04:21:19.071Z,11.60
2023-01-11T04:23:46.025Z,11.60
2023-01-11T04:26:12.902Z,11.50
2023-01-11T04:28:40.262Z,11.50
2023-01-11T04:31:07.186Z,11.40
2023-01-11T04:33:34.186Z,11.40
2023-01-11T04:36:08.833Z,11.40
2023-01-11T04:38:35.935Z,11.40
2023-01-11T04:41:23.513Z,11.40
2023-01-11T04:43:53.612Z,11.40
2023-01-11T04:46:20.524Z,11.40
2023-01-11T04:48:47.412Z,11.40
2023-01-11T04:51:14.414Z,11.40
2023-01-11T04:53:41.288Z,11.40
2023-01-11T04:56:09.167Z,11.40
2023-01-11T04:58:38.226Z,11.40
2023-01-11T05:01:10.137Z,11.40
2023-01-11T05:03:37.410Z,11.40
2023-01-11T05:06:05.023Z,11.40
2023-01-11T05:08:32.249Z,11.40
2023-01-11T05:11:05.750Z,11.40
2023-01-11T05:13:42.098Z,11.40
2023-01-11T05:16:14.840Z,11.40
2023-01-11T05:18:43.307Z,11.40
2023-01-11T05:21:12.852Z,11.40
2023-01-11T05:23:42.423Z,11.30
2023-01-11T05:26:18.419Z,11.30
2023-01-11T05:28:49.023Z,11.30
2023-01-11T05:31:16.913Z,11.30
2023-01-11T05:33:44.502Z,11.30
2023-01-11T05:36:22.580Z,11.30
2023-01-11T05:38:51.002Z,11.30
2023-01-11T05:41:20.143Z,11.30
2023-01-11T05:44:08.266Z,11.30
2023-01-11T05:46:37.534Z,11.30
2023-01-11T05:49:05.383Z,11.30
2023-01-11T05:51:35.465Z,11.30
2023-01-11T05:54:04.578Z,11.30
2023-01-11T05:56:31.799Z,11.30
2023-01-11T05:58:58.822Z,11.30
2023-01-11T06:01:26.279Z,11.30
2023-01-11T06:03:53.361Z,11.30
2023-01-11T06:06:20.789Z,11.30
2023-01-11T06:08:48.009Z,11.30
2023-01-11T06:11:15.741Z,11.30
2023-01-11T06:13:43.050Z,11.30
2023-01-11T06:16:12.717Z,11.30
2023-01-11T06:18:41.881Z,11.30
2023-01-11T06:21:09.657Z,11.40
2023-01-11T06:23:41.131Z,11.40
2023-01-11T06:26:11.583Z,11.40
2023-01-11T06:28:39.184Z,11.50
2023-01-11T06:31:06.759Z,11.50
2023-01-11T06:33:34.096Z,11.50
2023-01-11T06:36:05.314Z,11.50
2023-01-11T06:38:32.359Z,11.60
2023-01-11T06:41:02.371Z,11.60
2023-01-11T06:43:31.101Z,11.60
2023-01-11T06:45:59.174Z,11.70
2023-01-11T06:48:26.979Z,11.70
2023-01-11T06:50:56.972Z,11.70
2023-01-11T06:53:28.312Z,11.80
2023-01-11T06:55:57.584Z,11.80
2023-01-11T06:58:26.030Z,11.90
2023-01-11T07:00:55.158Z,11.90
2023-01-11T07:03:24.398Z,11.90
2023-01-11T07:05:53.539Z,12.00
2023-01-11T07:08:20.879Z,12.10
2023-01-11T07:10:48.289Z,12.10
2023-01-11T07:13:17.235Z,12.10
2023-01-11T07:15:45.581Z,12.10
2023-01-11T07:18:12.757Z,12.20
2023-01-11T07:20:39.863Z,12.20
2023-01-11T07:23:10.831Z,12.20
2023-01-11T07:25:37.751Z,12.20
2023-01-11T07:28:07.584Z,12.20
2023-01-11T07:30:51.708Z,12.20
2023-01-11T07:33:22.895Z,12.30
2023-01-11T07:35:50.045Z,12.30
2023-01-11T07:38:16.939Z,12.30
2023-01-11T07:40:43.893Z,12.30
2023-01-11T07:43:16.499Z,12.30
2023-01-11T07:45:47.081Z,12.30
2023-01-11T07:48:15.604Z,12.30
2023-01-11T07:50:44.749Z,12.30
2023-01-11T07:53:12.729Z,12.30
2023-01-11T07:55:40.359Z,12.40
2023-01-11T07:58:12.336Z,12.40
2023-01-11T08:00:41.180Z,12.40
2023-01-11T08:03:08.807Z,12.40
2023-01-11T08:05:36.011Z,12.40
2023-01-11T08:08:03.485Z,12.40
2023-01-11T08:10:30.688Z,12.40
2023-01-11T08:13:16.295Z,12.40
2023-01-11T08:15:43.449Z,12.40
2023-01-11T08:18:12.190Z,12.50
2023-01-11T08:20:40.299Z,12.50
2023-01-11T08:23:09.026Z,12.50
2023-01-11T08:25:36.353Z,12.50
2023-01-11T08:28:07.587Z,12.50
2023-01-11T08:30:36.405Z,12.50
2023-01-11T08:33:06.182Z,12.50
2023-01-11T08:35:38.189Z,12.50
2023-01-11T08:38:05.169Z,12.60
2023-01-11T08:40:32.133Z,12.60
2023-01-11T08:42:59.330Z,12.60
2023-01-11T08:45:26.558Z,12.60
2023-01-11T08:47:54.020Z,12.60
2023-01-11T08:50:22.116Z,12.70
2023-01-11T08:52:50.734Z,12.70
2023-01-11T08:55:18.082Z,12.70
2023-01-11T08:57:46.067Z,12.70
2023-01-11T09:00:14.141Z,12.70
2023-01-11T09:02:41.668Z,12.70
2023-01-11T09:05:09.604Z,12.70
2023-01-11T09:07:37.720Z,12.80
2023-01-11T09:10:05.304Z,12.70
2023-01-11T09:12:32.826Z,12.80
2023-01-11T09:15:00.332Z,12.80
2023-01-11T09:17:27.501Z,12.80
2023-01-11T09:19:54.477Z,12.80
2023-01-11T09:22:21.447Z,12.80
2023-01-11T09:24:48.316Z,12.80
2023-01-11T09:27:15.351Z,12.90
2023-01-11T09:29:42.374Z,12.90
2023-01-11T09:32:09.261Z,12.90
2023-01-11T09:34:36.283Z,13.00
2023-01-11T09:37:06.801Z,13.00
2023-01-11T09:39:35.185Z,13.00
2023-01-11T09:42:15.125Z,13.00
2023-01-11T09:44:56.824Z,13.10
2023-01-11T09:48:19.594Z,13.10
2023-01-11T09:50:48.748Z,13.10
2023-01-11T09:53:20.715Z,13.10
2023-01-11T09:55:52.152Z,13.10
2023-01-11T09:58:34.806Z,13.20
2023-01-11T10:01:14.707Z,13.20
2023-01-11T10:03:59.872Z,13.20
2023-01-11T10:06:51.322Z,13.10
2023-01-11T10:18:34.388Z,12.90
2023-01-11T10:19:18.482Z,12.70
2023-01-11T10:21:46.527Z,12.50
2023-01-11T10:24:48.609Z,12.30
2023-01-11T10:27:35.652Z,12.20
2023-01-11T10:30:33.303Z,12.10
2023-01-11T10:34:02.302Z,12.00
2023-01-11T10:36:51.293Z,12.00
2023-01-11T10:39:24.942Z,12.00
2023-01-11T10:42:11.681Z,12.00
2023-01-11T10:44:44.405Z,12.00
2023-01-11T10:47:19.433Z,12.00
2023-01-11T10:49:59.728Z,12.00
2023-01-11T10:52:41.773Z,12.10
2023-01-11T10:55:15.414Z,12.10
2023-01-11T10:57:59.423Z,12.10
2023-01-11T11:01:08.529Z,12.20
2023-01-11T11:03:35.510Z,12.20
2023-01-11T11:06:18.072Z,12.30
2023-01-11T11:08:48.387Z,12.30
2023-01-11T11:11:15.290Z,12.30
2023-01-11T11:14:16.374Z,12.40
2023-01-11T11:16:58.888Z,12.40
2023-01-11T11:19:31.603Z,12.40
2023-01-11T11:21:59.253Z,12.40
2023-01-11T11:24:38.035Z,12.40
2023-01-11T11:27:37.027Z,12.40
2023-01-11T11:30:04.664Z,12.40
2023-01-11T11:32:37.847Z,12.40
2023-01-11T11:35:07.783Z,12.40
2023-01-11T11:37:38.668Z,12.30
2023-01-11T11:40:06.379Z,12.20
2023-01-11T11:42:33.294Z,12.10
2023-01-11T11:45:09.471Z,12.00
2023-01-11T11:47:37.741Z,11.90
2023-01-11T11:50:41.936Z,11.70
2023-01-11T11:53:07.451Z,11.60
2023-01-11T11:55:35.766Z,11.60
2023-01-11T11:58:08.618Z,11.50
2023-01-11T12:00:41.625Z,11.40
2023-01-11T12:03:30.567Z,11.40
2023-01-11T12:06:04.377Z,11.40
2023-01-11T12:08:35.467Z,11.40
2023-01-11T12:11:07.389Z,11.30
2023-01-11T12:13:39.639Z,11.30
2023-01-11T12:16:21.837Z,11.40
2023-01-11T12:18:48.897Z,11.40
2023-01-11T12:21:20.351Z,11.40
2023-01-11T12:23:48.148Z,11.40
2023-01-11T12:26:32.984Z,11.40
2023-01-11T12:29:22.155Z,11.40
2023-01-11T12:31:49.136Z,11.50
2023-01-11T12:34:43.309Z,11.50
2023-01-11T12:37:25.773Z,11.50
2023-01-11T12:40:01.050Z,11.50
2023-01-11T12:43:01.706Z,11.50
2023-01-11T12:45:54.909Z,11.50
2023-01-11T12:48:33.895Z,11.50
2023-01-11T12:51:26.913Z,11.40
2023-01-11T12:54:10.385Z,11.40
2023-01-11T12:56:40.171Z,11.40
2023-01-11T12:59:16.239Z,11.40
2023-01-11T13:02:06.289Z,11.40
2023-01-11T13:04:53.903Z,11.40
2023-01-11T13:08:03.708Z,11.40
2023-01-11T13:10:49.789Z,11.40
2023-01-11T13:13:24.123Z,11.50
2023-01-11T13:15:54.155Z,11.50
2023-01-11T13:19:02.352Z,11.50
2023-01-11T13:21:43.358Z,11.50
2023-01-11T13:24:28.261Z,11.60
2023-01-11T13:27:04.240Z,11.60
2023-01-11T13:29:37.749Z,11.70
2023-01-11T13:32:08.787Z,11.80
2023-01-11T13:35:16.677Z,11.80
2023-01-11T13:37:50.647Z,12.00
2023-01-11T13:40:28.733Z,12.00
2023-01-11T13:43:13.804Z,12.10
2023-01-11T13:45:48.302Z,12.20
2023-01-11T13:48:46.026Z,12.20
2023-01-11T13:51:38.886Z,12.30
2023-01-11T13:54:15.600Z,12.30
2023-01-11T13:56:48.265Z,12.20
2023-01-11T13:59:39.623Z,12.20
2023-01-11T14:02:38.048Z,12.20
2023-01-11T14:05:21.530Z,12.10
2023-01-11T14:08:06.986Z,12.00
2023-01-11T14:10:44.739Z,11.70
2023-01-11T14:13:47.844Z,11.50
2023-01-11T14:16:43.121Z,11.30
2023-01-11T14:19:37.355Z,11.20
2023-01-11T14:22:31.548Z,11.10
2023-01-11T14:25:14.261Z,11.00
2023-01-11T14:27:57.823Z,10.90
2023-01-11T14:31:01.676Z,10.90
2023-01-11T14:33:52.105Z,10.90
2023-01-11T14:36:47.150Z,10.90
2023-01-11T14:40:04.727Z,10.90
2023-01-11T14:42:46.883Z,10.90
2023-01-11T14:45:52.235Z,10.90
2023-01-11T14:48:25.411Z,11.00
2023-01-11T14:51:28.187Z,11.00
2023-01-11T14:54:10.771Z,11.00
2023-01-11T14:56:44.001Z,11.00
2023-01-11T14:59:34.314Z,10.90
2023-01-11T15:02:04.405Z,10.90
2023-01-11T15:04:32.987Z,10.90
2023-01-11T15:07:00.930Z,11.00
2023-01-11T15:09:53.226Z,10.90
2023-01-11T15:12:31.894Z,11.00
2023-01-11T15:15:06.479Z,10.90
2023-01-11T15:17:52.973Z,11.00
2023-01-11T15:20:22.055Z,11.00
2023-01-11T15:23:16.824Z,11.00
2023-01-11T15:25:48.007Z,11.10
2023-01-11T15:28:37.929Z,11.00
2023-01-11T15:31:06.141Z,11.00
2023-01-11T15:33:48.740Z,11.10
2023-01-11T15:36:15.699Z,11.10
2023-01-11T15:38:54.141Z,11.10
2023-01-11T15:42:06.847Z,11.20
2023-01-11T15:44:58.429Z,11.20
2023-01-11T15:47:40.622Z,11.10
2023-01-11T15:50:32.342Z,11.00
2023-01-11T15:53:27.161Z,11.00
2023-01-11T15:56:12.869Z,10.90
2023-01-11T15:59:01.478Z,10.80
2023-01-11T16:01:28.972Z,10.80
2023-01-11T16:04:00.751Z,10.70
2023-01-11T16:06:33.487Z,10.80
2023-01-11T16:09:25.323Z,10.70
2023-01-11T16:12:23.533Z,10.70
2023-01-11T16:15:09.062Z,10.70
2023-01-11T16:17:40.942Z,10.70
2023-01-11T16:20:20.191Z,10.60
2023-01-11T16:22:50.287Z,10.60
2023-01-11T16:25:17.992Z,10.60
2023-01-11T16:27:52.799Z,10.60
2023-01-11T16:30:20.419Z,10.60
2023-01-11T16:32:47.386Z,10.60
2023-01-11T16:35:23.626Z,10.60
2023-01-11T16:37:56.439Z,10.60
2023-01-11T16:40:37.563Z,10.50
2023-01-11T16:43:28.319Z,10.60
2023-01-11T16:45:56.218Z,10.50
2023-01-11T16:48:26.909Z,10.50
2023-01-11T16:51:14.276Z,10.50
2023-01-11T16:53:43.982Z,10.50
2023-01-11T16:56:18.822Z,10.50
2023-01-11T16:59:15.109Z,10.50
2023-01-11T17:02:26.299Z,10.50
2023-01-11T17:04:54.291Z,10.60
2023-01-11T17:07:30.684Z,10.50
2023-01-11T17:10:18.726Z,10.50
2023-01-11T17:12:48.655Z,10.40
2023-01-11T17:15:31.342Z,10.40
2023-01-11T17:18:03.647Z,10.50
2023-01-11T17:20:31.532Z,10.40
2023-01-11T17:22:59.119Z,10.40
2023-01-11T17:25:44.443Z,10.40
2023-01-11T17:28:18.825Z,10.40
2023-01-11T17:30:48.777Z,10.40
2023-01-11T17:33:32.342Z,10.40
2023-01-11T17:36:00.315Z,10.40
2023-01-11T17:38:28.592Z,10.40
2023-01-11T17:41:01.167Z,10.40
2023-01-11T17:43:48.110Z,10.40
2023-01-11T17:46:22.062Z,10.40
2023-01-11T17:48:57.386Z,10.40
2023-01-11T17:51:31.460Z,10.40
2023-01-11T17:53:58.560Z,10.40
2023-01-11T17:56:42.051Z,10.40
2023-01-11T17:59:23.542Z,10.40
2023-01-11T18:02:04.538Z,10.30
2023-01-11T18:04:32.203Z,10.30
2023-01-11T18:07:07.872Z,10.20
2023-01-11T18:09:42.814Z,10.20
2023-01-11T18:12:12.843Z,10.20
2023-01-11T18:14:47.093Z,10.20
2023-01-11T18:17:32.969Z,10.20
2023-01-11T18:20:01.611Z,10.20
2023-01-11T18:22:37.205Z,10.20
2023-01-11T18:25:25.677Z,10.10
2023-01-11T18:28:12.949Z,10.00
2023-01-11T18:30:42.261Z,10.00
2023-01-11T18:33:22.729Z,9.90
2023-01-11T18:35:52.868Z,9.90
2023-01-11T18:38:24.679Z,9.80
2023-01-11T18:40:53.544Z,9.80
2023-01-11T18:43:26.392Z,9.80
2023-01-11T18:45:53.288Z,9.80
2023-01-11T18:48:20.831Z,9.70
2023-01-11T18:50:49.378Z,9.70
2023-01-11T18:53:16.944Z,9.60
2023-01-11T18:55:45.466Z,9.60
2023-01-11T18:58:12.458Z,9.60
2023-01-11T19:00:41.096Z,9.60
2023-01-11T19:03:10.249Z,9.60
2023-01-11T19:05:37.622Z,9.60
2023-01-11T19:08:04.781Z,9.60
2023-01-11T19:10:31.876Z,9.70
2023-01-11T19:12:58.847Z,9.80
2023-01-11T19:15:26.287Z,9.80
2023-01-11T19:17:54.424Z,9.90
2023-01-11T19:20:21.432Z,9.90
2023-01-11T19:22:48.581Z,9.90
2023-01-11T19:25:15.806Z,10.00
2023-01-11T19:27:43.585Z,9.90
2023-01-11T19:30:12.065Z,9.90
2023-01-11T19:32:39.092Z,9.90
2023-01-11T19:35:08.195Z,9.80
2023-01-11T19:37:37.670Z,9.80
2023-01-11T19:40:05.793Z,9.70
2023-01-11T19:42:33.153Z,9.70
2023-01-11T19:45:00.143Z,9.60
2023-01-11T19:47:27.172Z,9.60
2023-01-11T19:49:56.470Z,9.60
2023-01-11T19:52:23.614Z,9.60
2023-01-11T19:54:51.386Z,9.60
2023-01-11T19:57:20.665Z,9.70
2023-01-11T19:59:48.898Z,9.80
2023-01-11T20:02:18.863Z,9.80
2023-01-11T20:04:46.204Z,9.90
2023-01-11T20:07:13.990Z,9.90
2023-01-11T20:09:41.319Z,9.90
2023-01-11T20:12:10.964Z,9.90
2023-01-11T20:14:40.448Z,10.00
2023-01-11T20:17:07.987Z,10.00
2023-01-11T20:19:34.962Z,10.00
2023-01-11T20:22:02.140Z,9.90
2023-01-11T20:24:30.166Z,9.90
2023-01-11T20:27:00.320Z,9.90
2023-01-11T20:29:27.764Z,9.80
2023-01-11T20:31:55.104Z,9.80
2023-01-11T20:34:22.148Z,9.70
2023-01-11T20:36:49.324Z,9.70
2023-01-11T20:39:17.660Z,9.60
2023-01-11T20:41:47.439Z,9.50
2023-01-11T20:44:27.347Z,9.50
2023-01-11T20:46:56.055Z,9.40
2023-01-11T20:49:29.381Z,9.50
2023-01-11T20:51:56.669Z,9.40
2023-01-11T20:54:24.012Z,9.40
2023-01-11T20:56:51.323Z,9.40
2023-01-11T20:59:20.405Z,9.50
2023-01-11T21:01:48.191Z,9.50
2023-01-11T21:04:16.411Z,9.60
2023-01-11T21:06:45.900Z,9.60
2023-01-11T21:09:17.804Z,9.70
2023-01-11T21:11:52.365Z,9.70
2023-01-11T21:14:20.027Z,9.70
2023-01-11T21:16:46.996Z,9.60
2023-01-11T21:19:15.688Z,9.60
2023-01-11T21:21:43.616Z,9.50
2023-01-11T21:24:13.388Z,9.50
2023-01-11T21:26:42.282Z,9.50
2023-01-11T21:29:11.594Z,9.50
2023-01-11T21:31:39.671Z,9.50
2023-01-11T21:34:06.922Z,9.50
2023-01-11T21:36:34.540Z,9.50
2023-01-11T21:39:02.732Z,9.50
2023-01-11T21:41:50.670Z,9.50
2023-01-11T21:44:18.795Z,9.60
2023-01-11T21:46:47.242Z,9.60
2023-01-11T21:49:14.715Z,9.60
2023-01-11T21:51:42.885Z,9.60
2023-01-11T21:54:12.807Z,9.50
2023-01-11T21:56:41.788Z,9.50
2023-01-11T21:59:09.152Z,9.50
2023-01-11T22:01:39.631Z,9.50
2023-01-11T22:04:07.905Z,9.50
2023-01-11T22:06:39.973Z,9.40
2023-01-11T22:09:09.300Z,9.40
2023-01-11T22:11:36.255Z,9.40
2023-01-11T22:14:04.896Z,9.40
2023-01-11T22:16:32.523Z,9.40
2023-01-11T22:19:00.010Z,9.30
2023-01-11T22:21:27.906Z,9.30
2023-01-11T22:23:57.275Z,9.30
2023-01-11T22:26:25.033Z,9.30
2023-01-11T22:29:14.672Z,9.30
2023-01-11T22:31:43.405Z,9.30
2023-01-11T22:34:11.779Z,9.20
2023-01-11T22:36:39.225Z,9.30
2023-01-11T22:39:06.749Z,9.20
2023-01-11T22:41:33.670Z,9.20
2023-01-11T22:44:00.729Z,9.20
2023-01-11T22:46:28.334Z,9.20
2023-01-11T22:48:55.446Z,9.30
2023-01-11T22:51:24.869Z,9.30
2023-01-11T22:53:53.569Z,9.30
2023-01-11T22:56:24.817Z,9.40
2023-01-11T22:58:58.607Z,9.40
2023-01-11T23:01:31.262Z,9.40
2023-01-11T23:03:59.148Z,9.40
2023-01-11T23:06:31.964Z,9.40
2023-01-11T23:08:59.252Z,9.40
2023-01-11T23:11:47.872Z,9.30
2023-01-11T23:14:17.750Z,9.30
2023-01-11T23:16:45.836Z,9.30
2023-01-11T23:19:15.457Z,9.30
2023-01-11T23:21:43.850Z,9.20
2023-01-11T23:24:14.497Z,9.30
2023-01-11T23:26:41.753Z,9.20
2023-01-11T23:29:08.889Z,9.30
2023-01-11T23:31:36.356Z,9.20
2023-01-11T23:34:04.443Z,9.20
2023-01-11T23:36:33.849Z,9.30
2023-01-11T23:39:01.082Z,9.20
2023-01-11T23:41:46.676Z,9.30
2023-01-11T23:44:15.576Z,9.30
2023-01-11T23:47:02.572Z,9.20
2023-01-11T23:49:31.257Z,9.20
2023-01-11T23:51:58.773Z,9.20
2023-01-11T23:54:31.164Z,9.20
2023-01-11T23:56:59.006Z,9.30
2023-01-11T23:59:26.635Z,9.30
